sensor_id;sensor_type;location;lat;lon;timestamp;pressure;altitude;pressure_sealevel;temperature;humidity
76687;BME280;65615;47.378;19.344;2023-07-31T04:23:02;99914.59;;;19.22;100.00
76687;BME280;65615;47.378;19.344;2023-07-31T04:27:05;99914.59;;;19.22;100.00
76687;BME280;65615;47.378;19.344;2023-07-31T04:31:08;99914.09;;;18.82;100.00
76687;BME280;65615;47.378;19.344;2023-07-31T04:35:12;99924.66;;;19.02;100.00
76687;BME280;65615;47.378;19.344;2023-07-31T04:39:15;99925.41;;;19.09;100.00
76687;BME280;65615;47.378;19.344;2023-07-31T04:43:18;99923.69;;;19.14;100.00
76687;BME280;65615;47.378;19.344;2023-07-31T04:47:21;99926.88;;;19.29;100.00
76687;BME280;65615;47.378;19.344;2023-07-31T04:51:24;99930.94;;;19.32;100.00
76687;BME280;65615;47.378;19.344;2023-07-31T04:55:27;99927.09;;;19.46;100.00
76687;BME280;65615;47.378;19.344;2023-07-31T04:59:31;99933.06;;;19.48;100.00
76687;BME280;65615;47.378;19.344;2023-07-31T05:03:34;99925.13;;;19.41;100.00
76687;BME280;65615;47.378;19.344;2023-07-31T05:07:37;99930.84;;;19.45;100.00
76687;BME280;65615;47.378;19.344;2023-07-31T05:11:40;99937.81;;;19.46;100.00
76687;BME280;65615;47.378;19.344;2023-07-31T05:15:46;99935.91;;;19.53;100.00
76687;BME280;65615;47.378;19.344;2023-07-31T05:19:52;99925.63;;;19.50;100.00
76687;BME280;65615;47.378;19.344;2023-07-31T05:23:55;99932.78;;;19.56;100.00
76687;BME280;65615;47.378;19.344;2023-07-31T05:27:58;99943.19;;;19.64;100.00
76687;BME280;65615;47.378;19.344;2023-07-31T05:32:04;99938.81;;;19.70;100.00
76687;BME280;65615;47.378;19.344;2023-07-31T05:36:08;99949.84;;;19.80;100.00
76687;BME280;65615;47.378;19.344;2023-07-31T05:40:14;99940.94;;;19.97;100.00
76687;BME280;65615;47.378;19.344;2023-07-31T05:44:16;99937.41;;;20.33;100.00
76687;BME280;65615;47.378;19.344;2023-07-31T05:48:20;99933.06;;;20.62;100.00
76687;BME280;65615;47.378;19.344;2023-07-31T05:52:26;99929.81;;;20.83;100.00
76687;BME280;65615;47.378;19.344;2023-07-31T05:56:31;99946.00;;;21.06;100.00
76687;BME280;65615;47.378;19.344;2023-07-31T06:00:38;99943.41;;;21.11;94.96
76687;BME280;65615;47.378;19.344;2023-07-31T06:04:44;99946.31;;;20.98;97.02
76687;BME280;65615;47.378;19.344;2023-07-31T06:08:48;99942.06;;;20.79;94.70
76687;BME280;65615;47.378;19.344;2023-07-31T06:12:56;99951.69;;;20.98;100.00
76687;BME280;65615;47.378;19.344;2023-07-31T06:16:59;99949.94;;;20.92;99.73
76687;BME280;65615;47.378;19.344;2023-07-31T06:21:05;99956.41;;;20.73;95.68
76687;BME280;65615;47.378;19.344;2023-07-31T06:25:12;99952.69;;;20.74;93.91
76687;BME280;65615;47.378;19.344;2023-07-31T06:29:18;99957.59;;;20.77;96.92
76687;BME280;65615;47.378;19.344;2023-07-31T06:33:24;99970.00;;;21.01;92.90
76687;BME280;65615;47.378;19.344;2023-07-31T06:37:58;99977.41;;;21.05;88.83
76687;BME280;65615;47.378;19.344;2023-07-31T06:42:00;99982.91;;;21.45;89.10
76687;BME280;65615;47.378;19.344;2023-07-31T06:46:05;99977.53;;;21.45;84.81
76687;BME280;65615;47.378;19.344;2023-07-31T06:50:24;99979.97;;;21.70;86.84
76687;BME280;65615;47.378;19.344;2023-07-31T06:54:33;99982.19;;;21.96;83.64
76687;BME280;65615;47.378;19.344;2023-07-31T06:58:36;99969.87;;;22.40;80.32
76687;BME280;65615;47.378;19.344;2023-07-31T07:03:18;99966.47;;;22.72;79.71
76687;BME280;65615;47.378;19.344;2023-07-31T07:07:30;99962.87;;;22.55;78.83
76687;BME280;65615;47.378;19.344;2023-07-31T07:11:41;99963.00;;;22.49;74.86
76687;BME280;65615;47.378;19.344;2023-07-31T07:16:42;99970.25;;;22.60;73.23
76687;BME280;65615;47.378;19.344;2023-07-31T07:20:52;99970.44;;;22.70;74.75
76687;BME280;65615;47.378;19.344;2023-07-31T07:25:05;99970.13;;;22.83;70.42
76687;BME280;65615;47.378;19.344;2023-07-31T07:29:12;99974.53;;;22.89;71.84
76687;BME280;65615;47.378;19.344;2023-07-31T07:33:17;99968.84;;;23.02;71.56
76687;BME280;65615;47.378;19.344;2023-07-31T07:37:23;99964.56;;;22.90;71.15
76687;BME280;65615;47.378;19.344;2023-07-31T07:41:53;99981.75;;;23.00;73.40
76687;BME280;65615;47.378;19.344;2023-07-31T07:46:22;99978.69;;;23.13;71.71
76687;BME280;65615;47.378;19.344;2023-07-31T07:50:27;99984.91;;;23.30;69.27
76687;BME280;65615;47.378;19.344;2023-07-31T07:54:35;99983.19;;;23.57;72.99
76687;BME280;65615;47.378;19.344;2023-07-31T07:58:39;99979.53;;;23.30;74.09
76687;BME280;65615;47.378;19.344;2023-07-31T08:02:42;99977.31;;;23.27;72.66
76687;BME280;65615;47.378;19.344;2023-07-31T08:06:46;99971.75;;;22.84;72.46
76687;BME280;65615;47.378;19.344;2023-07-31T08:10:50;99983.38;;;22.85;71.11
76687;BME280;65615;47.378;19.344;2023-07-31T08:14:53;99977.81;;;23.24;71.37
76687;BME280;65615;47.378;19.344;2023-07-31T08:18:56;99979.31;;;24.08;69.20
76687;BME280;65615;47.378;19.344;2023-07-31T08:23:03;99975.66;;;24.46;66.10
76687;BME280;65615;47.378;19.344;2023-07-31T08:27:07;99973.06;;;24.56;64.93
76687;BME280;65615;47.378;19.344;2023-07-31T08:31:13;99968.66;;;24.45;66.00
76687;BME280;65615;47.378;19.344;2023-07-31T08:35:16;99968.44;;;24.25;65.94
76687;BME280;65615;47.378;19.344;2023-07-31T08:39:20;99975.03;;;24.12;67.41
76687;BME280;65615;47.378;19.344;2023-07-31T08:43:27;99976.38;;;24.63;60.46
76687;BME280;65615;47.378;19.344;2023-07-31T08:47:32;99964.75;;;24.36;61.80
76687;BME280;65615;47.378;19.344;2023-07-31T08:51:40;99968.72;;;25.08;59.46
76687;BME280;65615;47.378;19.344;2023-07-31T08:55:44;99965.13;;;25.35;58.31
76687;BME280;65615;47.378;19.344;2023-07-31T09:00:11;99966.97;;;25.71;54.31
76687;BME280;65615;47.378;19.344;2023-07-31T09:04:28;99968.28;;;26.15;54.00
76687;BME280;65615;47.378;19.344;2023-07-31T09:08:57;99954.78;;;26.25;50.16
76687;BME280;65615;47.378;19.344;2023-07-31T09:13:19;99954.28;;;26.43;46.54
76687;BME280;65615;47.378;19.344;2023-07-31T09:17:39;99955.37;;;26.52;47.81
76687;BME280;65615;47.378;19.344;2023-07-31T09:22:31;99941.34;;;26.85;47.25
76687;BME280;65615;47.378;19.344;2023-07-31T09:26:50;99946.47;;;26.72;43.58
76687;BME280;65615;47.378;19.344;2023-07-31T09:31:11;99954.87;;;26.90;45.55
76687;BME280;65615;47.378;19.344;2023-07-31T09:35:35;99951.38;;;27.05;43.87
76687;BME280;65615;47.378;19.344;2023-07-31T09:40:32;99953.75;;;27.32;44.24
76687;BME280;65615;47.378;19.344;2023-07-31T09:44:47;99946.16;;;27.44;43.65
76687;BME280;65615;47.378;19.344;2023-07-31T09:48:50;99940.50;;;27.45;42.47
76687;BME280;65615;47.378;19.344;2023-07-31T09:53:00;99944.56;;;27.18;41.46
76687;BME280;65615;47.378;19.344;2023-07-31T09:57:06;99943.78;;;27.07;42.95
76687;BME280;65615;47.378;19.344;2023-07-31T10:01:24;99937.47;;;27.52;42.51
76687;BME280;65615;47.378;19.344;2023-07-31T10:05:36;99927.56;;;27.96;41.30
76687;BME280;65615;47.378;19.344;2023-07-31T10:09:43;99935.38;;;28.56;40.63
76687;BME280;65615;47.378;19.344;2023-07-31T10:13:48;99924.91;;;27.76;39.58
76687;BME280;65615;47.378;19.344;2023-07-31T10:17:52;99929.28;;;27.62;41.21
76687;BME280;65615;47.378;19.344;2023-07-31T10:22:00;99935.47;;;28.36;40.17
76687;BME280;65615;47.378;19.344;2023-07-31T10:26:13;99926.06;;;28.68;38.34
76687;BME280;65615;47.378;19.344;2023-07-31T10:30:27;99926.97;;;29.20;37.72
76687;BME280;65615;47.378;19.344;2023-07-31T10:34:35;99924.63;;;29.61;37.32
76687;BME280;65615;47.378;19.344;2023-07-31T10:38:39;99920.56;;;29.35;37.03
76687;BME280;65615;47.378;19.344;2023-07-31T10:42:49;99919.34;;;29.93;36.44
76687;BME280;65615;47.378;19.344;2023-07-31T10:46:54;99922.38;;;30.10;36.27
76687;BME280;65615;47.378;19.344;2023-07-31T10:50:59;99921.06;;;29.89;36.32
76687;BME280;65615;47.378;19.344;2023-07-31T10:59:27;99912.38;;;29.40;38.23
76687;BME280;65615;47.378;19.344;2023-07-31T11:03:45;99906.91;;;29.87;36.58
76687;BME280;65615;47.378;19.344;2023-07-31T11:07:49;99909.16;;;30.41;35.71
76687;BME280;65615;47.378;19.344;2023-07-31T11:11:53;99912.31;;;30.85;35.09
76687;BME280;65615;47.378;19.344;2023-07-31T11:15:56;99903.25;;;30.53;35.08
76687;BME280;65615;47.378;19.344;2023-07-31T11:19:59;99891.44;;;30.76;33.81
76687;BME280;65615;47.378;19.344;2023-07-31T11:24:02;99898.12;;;29.72;36.53
76687;BME280;65615;47.378;19.344;2023-07-31T11:28:13;99891.94;;;30.46;35.71
76687;BME280;65615;47.378;19.344;2023-07-31T11:32:16;99891.75;;;30.18;35.24
76687;BME280;65615;47.378;19.344;2023-07-31T11:36:21;99890.72;;;30.14;37.60
76687;BME280;65615;47.378;19.344;2023-07-31T11:40:23;99888.53;;;29.27;37.47
76687;BME280;65615;47.378;19.344;2023-07-31T11:44:40;99887.25;;;29.90;37.11
76687;BME280;65615;47.378;19.344;2023-07-31T11:48:43;99881.44;;;28.74;38.75
76687;BME280;65615;47.378;19.344;2023-07-31T11:52:48;99873.50;;;28.38;39.55
76687;BME280;65615;47.378;19.344;2023-07-31T11:56:52;99867.81;;;27.86;41.98
76687;BME280;65615;47.378;19.344;2023-07-31T12:00:55;99869.91;;;29.39;37.60
76687;BME280;65615;47.378;19.344;2023-07-31T12:04:59;99875.41;;;29.34;39.76
76687;BME280;65615;47.378;19.344;2023-07-31T12:09:05;99859.66;;;30.15;37.30
76687;BME280;65615;47.378;19.344;2023-07-31T12:13:10;99861.66;;;30.10;36.00
76687;BME280;65615;47.378;19.344;2023-07-31T12:17:17;99850.72;;;29.91;36.80
76687;BME280;65615;47.378;19.344;2023-07-31T12:21:21;99852.81;;;30.18;37.06
76687;BME280;65615;47.378;19.344;2023-07-31T12:25:31;99847.16;;;30.79;35.26
76687;BME280;65615;47.378;19.344;2023-07-31T12:29:35;99841.00;;;31.19;33.42
76687;BME280;65615;47.378;19.344;2023-07-31T12:33:43;99834.91;;;29.93;34.06
76687;BME280;65615;47.378;19.344;2023-07-31T12:37:46;99846.31;;;30.97;32.52
76687;BME280;65615;47.378;19.344;2023-07-31T12:41:49;99834.50;;;30.88;32.76
76687;BME280;65615;47.378;19.344;2023-07-31T12:45:54;99825.22;;;31.16;32.88
76687;BME280;65615;47.378;19.344;2023-07-31T12:49:57;99829.47;;;31.22;33.17
76687;BME280;65615;47.378;19.344;2023-07-31T12:54:00;99826.72;;;30.63;32.96
76687;BME280;65615;47.378;19.344;2023-07-31T12:58:03;99822.38;;;31.75;32.86
76687;BME280;65615;47.378;19.344;2023-07-31T13:02:06;99812.78;;;31.37;32.11
76687;BME280;65615;47.378;19.344;2023-07-31T13:06:09;99805.22;;;31.34;32.35
76687;BME280;65615;47.378;19.344;2023-07-31T13:10:14;99798.94;;;31.47;33.03
76687;BME280;65615;47.378;19.344;2023-07-31T13:14:17;99793.88;;;31.54;31.49
76687;BME280;65615;47.378;19.344;2023-07-31T13:18:20;99798.34;;;32.22;32.92
76687;BME280;65615;47.378;19.344;2023-07-31T13:22:23;99783.38;;;31.83;31.45
76687;BME280;65615;47.378;19.344;2023-07-31T13:26:26;99777.47;;;32.26;31.62
76687;BME280;65615;47.378;19.344;2023-07-31T13:30:29;99774.81;;;31.63;30.33
76687;BME280;65615;47.378;19.344;2023-07-31T13:34:32;99779.03;;;31.06;32.30
76687;BME280;65615;47.378;19.344;2023-07-31T13:38:35;99778.06;;;32.23;32.60
76687;BME280;65615;47.378;19.344;2023-07-31T13:42:38;99775.97;;;32.42;31.08
76687;BME280;65615;47.378;19.344;2023-07-31T13:46:41;99778.88;;;32.98;30.08
76687;BME280;65615;47.378;19.344;2023-07-31T13:50:45;99770.41;;;33.25;30.48
76687;BME280;65615;47.378;19.344;2023-07-31T13:54:48;99769.28;;;32.48;31.05
76687;BME280;65615;47.378;19.344;2023-07-31T13:58:51;99770.56;;;32.81;31.33
76687;BME280;65615;47.378;19.344;2023-07-31T14:02:53;99758.19;;;32.31;32.03
76687;BME280;65615;47.378;19.344;2023-07-31T14:06:57;99766.88;;;31.89;31.05
76687;BME280;65615;47.378;19.344;2023-07-31T14:10:59;99761.12;;;32.96;30.40
76687;BME280;65615;47.378;19.344;2023-07-31T14:15:03;99754.19;;;31.70;30.82
76687;BME280;65615;47.378;19.344;2023-07-31T14:19:06;99759.22;;;30.55;32.30
76687;BME280;65615;47.378;19.344;2023-07-31T14:23:11;99764.78;;;30.17;33.55
76687;BME280;65615;47.378;19.344;2023-07-31T14:27:17;99755.72;;;30.22;34.67
76687;BME280;65615;47.378;19.344;2023-07-31T14:31:20;99755.41;;;30.56;33.02
76687;BME280;65615;47.378;19.344;2023-07-31T14:35:23;99737.88;;;30.89;33.83
76687;BME280;65615;47.378;19.344;2023-07-31T14:39:26;99751.44;;;30.94;33.82
76687;BME280;65615;47.378;19.344;2023-07-31T14:43:28;99740.03;;;31.55;33.21
76687;BME280;65615;47.378;19.344;2023-07-31T14:47:32;99734.06;;;30.90;33.56
76687;BME280;65615;47.378;19.344;2023-07-31T14:51:34;99731.22;;;30.03;34.05
